createdAt,value
2017-12-09T00:02:04.195Z,-0.35
2017-12-09T00:04:31.735Z,-0.31
2017-12-09T00:06:59.263Z,-0.32
2017-12-09T00:09:26.794Z,-0.24
2017-12-09T00:11:54.315Z,-0.12
2017-12-09T00:14:21.862Z,-0.11
2017-12-09T00:16:49.369Z,-0.32
2017-12-09T00:19:16.886Z,-0.01
2017-12-09T00:21:44.408Z,-0.21
2017-12-09T00:24:11.941Z,-0.24
2017-12-09T00:26:39.428Z,-0.48
2017-12-09T00:29:06.922Z,-0.54
2017-12-09T00:31:34.441Z,-0.69
2017-12-09T00:34:01.965Z,-0.74
2017-12-09T00:36:29.483Z,-0.56
2017-12-09T00:38:56.998Z,-0.54
2017-12-09T00:41:24.519Z,-0.63
2017-12-09T00:43:52.046Z,-0.72
2017-12-09T00:46:19.549Z,-0.66
2017-12-09T00:48:47.042Z,-0.80
2017-12-09T00:51:14.569Z,-0.64
2017-12-09T00:53:42.075Z,-0.63
2017-12-09T00:56:09.600Z,-0.57
2017-12-09T00:58:38.015Z,-0.56
2017-12-09T01:01:05.519Z,-0.35
2017-12-09T01:03:33.079Z,-0.45
2017-12-09T01:06:00.612Z,-0.56
2017-12-09T01:08:28.127Z,-1.46
2017-12-09T01:10:55.628Z,-1.61
2017-12-09T01:13:23.122Z,-1.61
2017-12-09T01:16:02.556Z,-1.42
2017-12-09T01:18:42.091Z,-1.59
2017-12-09T01:21:09.605Z,-1.49
2017-12-09T01:23:37.124Z,-1.36
2017-12-09T01:26:04.652Z,-1.42
2017-12-09T01:28:32.219Z,-1.45
2017-12-09T01:30:59.721Z,-1.59
2017-12-09T01:33:27.238Z,-1.62
2017-12-09T01:35:54.779Z,-1.76
2017-12-09T01:38:22.291Z,-1.80
2017-12-09T01:40:49.822Z,-1.69
2017-12-09T01:43:17.326Z,-1.85
2017-12-09T01:45:44.821Z,-2.03
2017-12-09T01:48:12.314Z,-2.14
2017-12-09T01:50:39.802Z,-2.19
2017-12-09T01:53:07.450Z,-2.43
2017-12-09T01:55:34.959Z,-2.45
2017-12-09T01:58:02.474Z,-2.40
2017-12-09T02:00:30.013Z,-2.45
2017-12-09T02:02:57.531Z,-2.20
2017-12-09T02:05:25.066Z,-2.09
2017-12-09T02:07:52.576Z,-1.77
2017-12-09T02:10:20.086Z,-1.99
2017-12-09T02:12:47.621Z,-2.16
2017-12-09T02:15:15.153Z,-2.15
2017-12-09T02:17:42.708Z,-2.01
2017-12-09T02:20:10.208Z,-2.06
2017-12-09T02:22:37.721Z,-2.11
2017-12-09T02:25:05.226Z,-2.30
2017-12-09T02:27:32.751Z,-2.33
2017-12-09T02:30:00.241Z,-2.17
2017-12-09T02:32:27.780Z,-2.01
2017-12-09T02:34:55.289Z,-2.21
2017-12-09T02:37:22.833Z,-1.97
2017-12-09T02:39:50.337Z,-2.36
2017-12-09T02:42:17.845Z,-2.51
2017-12-09T02:44:45.337Z,-2.48
2017-12-09T02:47:12.848Z,-2.51
2017-12-09T02:49:40.364Z,-2.61
2017-12-09T02:52:07.878Z,-2.37
2017-12-09T02:54:35.444Z,-2.23
2017-12-09T02:57:02.964Z,-2.07
2017-12-09T02:59:30.472Z,-2.03
2017-12-09T03:01:57.976Z,-2.09
2017-12-09T03:04:25.484Z,-1.93
2017-12-09T03:06:53.011Z,-2.41
2017-12-09T03:09:20.504Z,-2.30
2017-12-09T03:11:48.156Z,-2.34
2017-12-09T03:14:15.656Z,-2.63
2017-12-09T03:16:43.144Z,-2.59
2017-12-09T03:19:10.654Z,-2.58
2017-12-09T03:21:38.166Z,-2.20
2017-12-09T03:24:05.691Z,-2.08
2017-12-09T03:26:33.207Z,-2.08
2017-12-09T03:29:00.716Z,-2.22
2017-12-09T03:31:28.570Z,-1.99
2017-12-09T03:33:56.063Z,-2.00
2017-12-09T03:36:23.636Z,-1.98
2017-12-09T03:38:51.230Z,-2.13
2017-12-09T03:41:18.747Z,-2.27
2017-12-09T03:43:46.256Z,-2.33
2017-12-09T03:46:13.780Z,-2.14
2017-12-09T03:48:41.285Z,-2.20
2017-12-09T03:51:08.777Z,-2.36
2017-12-09T03:53:36.316Z,-2.18
2017-12-09T03:56:03.812Z,-2.21
2017-12-09T03:58:31.325Z,-2.11
2017-12-09T04:00:58.822Z,-2.23
2017-12-09T04:03:26.339Z,-2.02
2017-12-09T04:05:53.860Z,-2.11
2017-12-09T04:08:21.395Z,-2.17
2017-12-09T04:10:48.900Z,-1.87
2017-12-09T04:13:16.404Z,-2.00
2017-12-09T04:15:43.913Z,-1.91
2017-12-09T04:18:11.416Z,-1.78
2017-12-09T04:20:38.920Z,-1.54
2017-12-09T04:23:06.433Z,-1.35
2017-12-09T04:25:33.928Z,-1.57
2017-12-09T04:28:01.442Z,-1.83
2017-12-09T04:30:28.958Z,-1.51
2017-12-09T04:32:56.456Z,-1.52
2017-12-09T04:35:23.977Z,-1.56
2017-12-09T04:37:51.489Z,-1.73
2017-12-09T04:40:18.991Z,-1.62
2017-12-09T04:42:46.492Z,-1.64
2017-12-09T04:45:14.177Z,-1.56
2017-12-09T04:47:41.678Z,-1.46
2017-12-09T04:50:09.191Z,-1.48
2017-12-09T04:52:36.698Z,-1.54
2017-12-09T04:55:04.193Z,-1.67
2017-12-09T04:57:31.733Z,-1.77
2017-12-09T04:59:59.244Z,-1.64
2017-12-09T05:02:26.798Z,-1.56
2017-12-09T05:04:54.300Z,-1.81
2017-12-09T05:07:21.909Z,-1.69
2017-12-09T05:09:49.535Z,-1.84
2017-12-09T05:12:17.028Z,-1.74
2017-12-09T05:14:44.532Z,-1.59
2017-12-09T05:17:12.027Z,-1.94
2017-12-09T05:19:39.546Z,-2.09
2017-12-09T05:22:07.104Z,-1.75
2017-12-09T05:24:34.625Z,-1.90
2017-12-09T05:27:02.204Z,-1.74
2017-12-09T05:29:29.709Z,-1.98
2017-12-09T05:31:57.205Z,-2.03
2017-12-09T05:34:24.741Z,-1.88
2017-12-09T05:36:52.263Z,-1.95
2017-12-09T05:39:19.845Z,-2.01
2017-12-09T05:41:47.369Z,-1.77
2017-12-09T05:44:14.881Z,-1.78
2017-12-09T05:46:42.418Z,-1.77
2017-12-09T05:49:09.913Z,-1.89
2017-12-09T05:51:37.451Z,-1.96
2017-12-09T05:54:05.551Z,-1.94
2017-12-09T05:56:33.087Z,-1.85
2017-12-09T05:59:00.601Z,-1.66
2017-12-09T06:01:28.134Z,-1.85
2017-12-09T06:03:55.663Z,-1.84
2017-12-09T06:06:23.161Z,-1.61
2017-12-09T06:08:50.670Z,-1.85
2017-12-09T06:11:18.180Z,-1.83
2017-12-09T06:13:45.699Z,-1.94
2017-12-09T06:16:13.202Z,-1.68
2017-12-09T06:18:40.716Z,-1.66
2017-12-09T06:21:08.224Z,-1.50
2017-12-09T06:23:35.760Z,-1.86
2017-12-09T06:26:03.275Z,-1.95
2017-12-09T06:28:30.786Z,-1.86
2017-12-09T06:30:58.291Z,-1.70
2017-12-09T06:33:25.797Z,-1.68
2017-12-09T06:35:53.316Z,-1.54
2017-12-09T06:38:20.828Z,-1.21
2017-12-09T06:40:48.345Z,-1.41
2017-12-09T06:43:15.844Z,-1.22
2017-12-09T06:45:43.379Z,-1.00
2017-12-09T06:48:10.904Z,-0.94
2017-12-09T06:50:38.407Z,-0.72
2017-12-09T06:53:05.916Z,-0.97
2017-12-09T06:55:33.471Z,-0.93
2017-12-09T06:58:00.978Z,-1.12
2017-12-09T07:00:28.637Z,-0.99
2017-12-09T07:02:56.225Z,-1.13
2017-12-09T07:05:23.745Z,-0.93
2017-12-09T07:07:51.247Z,-1.20
2017-12-09T07:10:18.777Z,-1.07
2017-12-09T07:12:46.313Z,-1.16
2017-12-09T07:15:13.871Z,-1.26
2017-12-09T07:17:41.393Z,-1.26
2017-12-09T07:20:08.901Z,-1.12
2017-12-09T07:22:36.402Z,-1.12
2017-12-09T07:25:03.902Z,-1.17
2017-12-09T07:27:31.392Z,-1.18
2017-12-09T07:29:58.908Z,-1.21
2017-12-09T07:32:26.418Z,-1.25
2017-12-09T07:34:53.942Z,-0.92
2017-12-09T07:37:21.439Z,-0.81
2017-12-09T07:39:48.946Z,-1.01
2017-12-09T07:42:16.462Z,-1.19
2017-12-09T07:44:43.975Z,-0.83
2017-12-09T07:47:11.469Z,-0.78
2017-12-09T07:49:38.975Z,-0.75
2017-12-09T07:52:06.469Z,-0.72
2017-12-09T07:54:34.017Z,-1.25
2017-12-09T07:57:01.495Z,-1.32
2017-12-09T07:59:29.037Z,-1.04
2017-12-09T08:01:56.554Z,-0.82
2017-12-09T08:04:24.082Z,-0.36
2017-12-09T08:06:51.660Z,-0.14
2017-12-09T08:09:19.181Z,-0.46
2017-12-09T08:11:46.828Z,0.01
2017-12-09T08:14:14.363Z,-0.54
2017-12-09T08:16:41.849Z,-0.29
2017-12-09T08:19:09.381Z,-0.86
2017-12-09T08:21:36.898Z,-1.06
2017-12-09T08:24:04.411Z,-0.81
2017-12-09T08:26:32.116Z,-0.52
2017-12-09T08:28:59.624Z,-0.83
2017-12-09T08:31:27.171Z,-0.73
2017-12-09T08:33:54.745Z,-1.02
2017-12-09T08:36:22.433Z,-0.72
2017-12-09T08:38:49.956Z,-0.86
2017-12-09T08:41:17.486Z,-0.73
2017-12-09T08:43:45.009Z,-0.71
2017-12-09T08:46:12.505Z,-0.47
2017-12-09T08:48:40.006Z,-0.69
2017-12-09T08:51:07.829Z,0.08
2017-12-09T08:53:35.349Z,0.31
2017-12-09T08:56:02.881Z,0.26
2017-12-09T08:58:30.387Z,0.70
2017-12-09T09:00:57.966Z,1.11
2017-12-09T09:03:25.480Z,2.83
2017-12-09T09:05:53.016Z,4.67
2017-12-09T09:08:20.590Z,2.13
2017-12-09T09:10:48.106Z,3.22
2017-12-09T09:13:15.601Z,2.28
2017-12-09T09:15:43.098Z,1.11
2017-12-09T09:18:11.162Z,3.23
2017-12-09T09:20:38.661Z,2.64
2017-12-09T09:23:06.176Z,2.38
2017-12-09T09:25:33.686Z,4.57
2017-12-09T09:28:01.206Z,2.57
2017-12-09T09:30:28.718Z,3.49
2017-12-09T09:32:56.241Z,3.97
2017-12-09T09:35:23.755Z,4.94
2017-12-09T09:37:51.507Z,6.41
2017-12-09T09:40:19.080Z,4.67
2017-12-09T09:42:46.631Z,2.90
2017-12-09T09:45:14.147Z,1.36
2017-12-09T09:47:41.668Z,1.24
2017-12-09T09:50:09.212Z,1.25
2017-12-09T09:52:36.718Z,1.20
2017-12-09T09:55:04.258Z,2.32
2017-12-09T09:57:31.765Z,1.43
2017-12-09T09:59:59.282Z,2.38
2017-12-09T10:02:26.798Z,3.35
2017-12-09T10:04:54.305Z,3.12
2017-12-09T10:07:21.824Z,3.55
2017-12-09T10:09:49.320Z,4.30
2017-12-09T10:12:16.833Z,4.10
2017-12-09T10:14:44.316Z,3.34
2017-12-09T10:17:11.833Z,2.75
2017-12-09T10:19:39.334Z,2.15
2017-12-09T10:22:06.844Z,2.60
2017-12-09T10:24:34.376Z,1.92
2017-12-09T10:27:02.818Z,1.41
2017-12-09T10:29:30.321Z,1.24
2017-12-09T10:31:57.817Z,1.47
2017-12-09T10:34:25.324Z,2.10
2017-12-09T10:36:52.813Z,2.47
2017-12-09T10:39:20.414Z,2.67
2017-12-09T10:41:47.980Z,2.22
2017-12-09T10:44:15.492Z,2.71
2017-12-09T10:46:43.017Z,3.10
2017-12-09T10:49:10.524Z,2.61
2017-12-09T10:51:38.063Z,2.11
2017-12-09T10:54:05.844Z,3.23
2017-12-09T10:56:33.343Z,2.50
2017-12-09T10:59:00.876Z,2.12
2017-12-09T11:01:28.358Z,2.91
2017-12-09T11:03:55.847Z,3.65
2017-12-09T11:06:23.354Z,2.82
2017-12-09T11:08:51.102Z,2.63
2017-12-09T11:11:18.623Z,2.63
2017-12-09T11:13:46.131Z,4.03
2017-12-09T11:16:13.642Z,3.12
2017-12-09T11:18:41.208Z,3.34
2017-12-09T11:21:08.725Z,2.70
2017-12-09T11:23:36.228Z,2.75
2017-12-09T11:26:03.808Z,2.71
2017-12-09T11:28:31.315Z,4.93
2017-12-09T11:30:58.849Z,2.10
2017-12-09T11:33:26.463Z,3.59
2017-12-09T11:35:53.971Z,1.94
2017-12-09T11:38:21.547Z,2.20
2017-12-09T11:40:49.072Z,3.93
2017-12-09T11:43:16.609Z,4.91
2017-12-09T11:45:44.136Z,3.52
2017-12-09T11:48:11.993Z,2.03
2017-12-09T11:50:39.512Z,2.76
2017-12-09T11:53:07.025Z,4.92
2017-12-09T11:55:34.592Z,2.36
2017-12-09T11:58:02.102Z,2.93
2017-12-09T12:00:29.741Z,2.76
2017-12-09T12:02:57.236Z,2.87
2017-12-09T12:05:24.735Z,2.24
2017-12-09T12:07:52.273Z,1.87
2017-12-09T12:10:19.780Z,2.71
2017-12-09T12:12:47.294Z,2.23
2017-12-09T12:15:14.893Z,2.27
2017-12-09T12:17:42.559Z,1.68
2017-12-09T12:20:10.198Z,1.41
2017-12-09T12:22:37.710Z,1.64
2017-12-09T12:25:05.214Z,1.83
2017-12-09T12:27:32.721Z,2.29
2017-12-09T12:30:00.224Z,2.41
2017-12-09T12:32:27.737Z,2.70
2017-12-09T12:34:55.255Z,2.32
2017-12-09T12:37:22.744Z,2.18
2017-12-09T12:39:50.273Z,2.06
2017-12-09T12:42:18.012Z,1.74
2017-12-09T12:44:45.551Z,2.48
2017-12-09T12:47:13.045Z,2.28
2017-12-09T12:49:40.557Z,2.62
2017-12-09T12:52:08.040Z,3.14
2017-12-09T12:54:35.716Z,2.56
2017-12-09T12:57:03.209Z,2.60
2017-12-09T12:59:30.701Z,2.61
2017-12-09T13:01:58.201Z,2.58
2017-12-09T13:04:25.730Z,3.39
2017-12-09T13:06:53.259Z,2.39
2017-12-09T13:09:20.764Z,1.78
2017-12-09T13:11:48.292Z,2.22
2017-12-09T13:14:15.792Z,2.36
2017-12-09T13:16:43.294Z,2.36
2017-12-09T13:19:10.797Z,2.82
2017-12-09T13:21:38.334Z,2.20
2017-12-09T13:24:05.836Z,3.25
2017-12-09T13:26:33.373Z,3.26
2017-12-09T13:29:00.877Z,3.87
2017-12-09T13:31:28.405Z,2.09
2017-12-09T13:33:55.921Z,3.12
2017-12-09T13:36:23.454Z,3.09
2017-12-09T13:38:50.981Z,1.96
2017-12-09T13:41:18.482Z,1.70
2017-12-09T13:43:45.989Z,1.59
2017-12-09T13:46:15.521Z,1.61
2017-12-09T13:48:43.021Z,1.58
2017-12-09T13:51:10.524Z,1.75
2017-12-09T13:53:38.069Z,1.40
2017-12-09T13:56:05.561Z,1.01
2017-12-09T13:58:33.062Z,1.12
2017-12-09T14:01:00.592Z,1.00
2017-12-09T14:03:28.078Z,1.20
2017-12-09T14:05:55.597Z,1.01
2017-12-09T14:08:23.088Z,1.36
2017-12-09T14:10:50.576Z,1.31
2017-12-09T14:13:18.081Z,1.11
2017-12-09T14:15:45.613Z,1.22
2017-12-09T14:18:13.129Z,0.89
2017-12-09T14:20:40.654Z,0.73
2017-12-09T14:23:08.150Z,0.82
2017-12-09T14:25:35.649Z,0.90
2017-12-09T14:28:03.155Z,0.96
2017-12-09T14:30:30.665Z,1.20
2017-12-09T14:32:58.316Z,1.00
2017-12-09T14:35:25.850Z,0.95
2017-12-09T14:37:53.593Z,0.89
2017-12-09T14:40:21.302Z,0.92
2017-12-09T14:42:48.815Z,0.88
2017-12-09T14:45:16.326Z,0.80
2017-12-09T14:47:43.838Z,0.74
2017-12-09T14:50:11.486Z,0.66
2017-12-09T14:52:38.999Z,0.62
2017-12-09T14:55:06.561Z,0.66
2017-12-09T14:57:34.090Z,0.82
2017-12-09T15:00:01.610Z,0.80
2017-12-09T15:02:29.288Z,0.54
2017-12-09T15:04:56.790Z,0.46
2017-12-09T15:07:24.335Z,0.55
2017-12-09T15:09:52.197Z,0.43
2017-12-09T15:12:19.851Z,0.41
2017-12-09T15:14:47.389Z,0.40
2017-12-09T15:17:15.078Z,0.43
2017-12-09T15:19:42.776Z,0.37
2017-12-09T15:22:10.434Z,0.43
2017-12-09T15:24:38.007Z,0.74
2017-12-09T15:27:05.497Z,0.41
2017-12-09T15:29:34.299Z,0.41
2017-12-09T15:32:01.889Z,0.39
2017-12-09T15:34:30.448Z,0.41
2017-12-09T15:36:57.955Z,0.36
2017-12-09T15:39:26.244Z,0.36
2017-12-09T15:41:53.770Z,0.33
2017-12-09T15:44:22.271Z,0.44
2017-12-09T15:46:49.866Z,0.37
2017-12-09T15:49:18.380Z,0.31
2017-12-09T15:51:47.232Z,0.27
2017-12-09T15:54:14.788Z,0.33
2017-12-09T15:56:42.843Z,0.42
2017-12-09T15:59:10.395Z,0.20
2017-12-09T16:01:38.443Z,0.21
2017-12-09T16:04:06.108Z,0.17
2017-12-09T16:06:33.622Z,0.15
2017-12-09T16:09:01.105Z,0.22
2017-12-09T16:11:28.629Z,0.23
2017-12-09T16:13:56.147Z,0.18
2017-12-09T16:16:23.652Z,0.22
2017-12-09T16:18:51.230Z,0.15
2017-12-09T16:21:19.429Z,0.12
2017-12-09T16:23:46.926Z,0.07
2017-12-09T16:26:14.447Z,0.09
2017-12-09T16:28:42.076Z,0.08
2017-12-09T16:31:09.598Z,0.07
2017-12-09T16:33:37.634Z,0.05
2017-12-09T16:36:05.807Z,0.07
2017-12-09T16:38:33.575Z,0.08
2017-12-09T16:41:01.263Z,0.10
2017-12-09T16:43:28.832Z,-0.01
2017-12-09T16:45:56.388Z,0.04
2017-12-09T16:48:23.917Z,0.07
2017-12-09T16:50:51.518Z,0.25
2017-12-09T16:53:19.024Z,0.10
2017-12-09T16:55:46.651Z,0.05
2017-12-09T16:58:14.266Z,0.05
2017-12-09T17:00:41.810Z,-0.01
2017-12-09T17:03:09.423Z,0.07
2017-12-09T17:05:36.931Z,0.03
2017-12-09T17:08:04.446Z,0.05
2017-12-09T17:10:31.977Z,0.07
2017-12-09T17:12:59.768Z,0.18
2017-12-09T17:15:27.293Z,0.15
2017-12-09T17:17:54.817Z,0.06
2017-12-09T17:20:22.462Z,0.08
2017-12-09T17:22:49.987Z,0.07
2017-12-09T17:25:18.234Z,0.07
2017-12-09T17:27:45.789Z,0.09
2017-12-09T17:30:13.345Z,0.04
2017-12-09T17:32:40.860Z,-0.05
2017-12-09T17:35:08.625Z,0.01
2017-12-09T17:37:36.166Z,0.13
2017-12-09T17:40:03.880Z,-0.05
2017-12-09T17:42:31.440Z,0.13
2017-12-09T17:44:58.935Z,-0.08
2017-12-09T17:47:26.467Z,-0.05
2017-12-09T17:49:55.310Z,-0.10
2017-12-09T17:52:22.938Z,0.06
2017-12-09T17:54:50.461Z,-0.05
2017-12-09T17:57:18.018Z,-0.08
2017-12-09T17:59:45.523Z,-0.13
2017-12-09T18:02:13.120Z,-0.15
2017-12-09T18:04:40.647Z,-0.11
2017-12-09T18:07:08.178Z,-0.17
2017-12-09T18:09:35.692Z,-0.20
2017-12-09T18:12:03.237Z,-0.16
2017-12-09T18:14:30.780Z,-0.30
2017-12-09T18:16:58.314Z,-0.37
2017-12-09T18:19:25.858Z,-0.28
2017-12-09T18:21:53.352Z,-0.43
2017-12-09T18:24:20.971Z,-0.52
2017-12-09T18:26:49.233Z,-0.59
2017-12-09T18:29:16.755Z,-0.62
2017-12-09T18:31:44.281Z,-0.72
2017-12-09T18:34:11.788Z,-0.78
2017-12-09T18:36:39.332Z,-0.82
2017-12-09T18:39:06.880Z,-0.76
2017-12-09T18:41:34.393Z,-0.89
2017-12-09T18:44:01.960Z,-0.73
2017-12-09T18:46:29.908Z,-0.81
2017-12-09T18:48:57.429Z,-0.79
2017-12-09T18:51:25.049Z,-0.95
2017-12-09T18:53:52.585Z,-0.95
2017-12-09T18:56:20.169Z,-0.97
2017-12-09T18:58:47.678Z,-1.07
2017-12-09T19:01:15.190Z,-0.99
2017-12-09T19:03:42.968Z,-0.99
2017-12-09T19:06:10.486Z,-0.96
2017-12-09T19:08:37.999Z,-1.04
2017-12-09T19:11:05.501Z,-1.12
2017-12-09T19:13:33.022Z,-1.10
2017-12-09T19:16:00.585Z,-1.11
2017-12-09T19:18:28.166Z,-1.08
2017-12-09T19:20:55.773Z,-1.13
2017-12-09T19:23:23.313Z,-1.00
2017-12-09T19:25:50.809Z,-1.15
2017-12-09T19:28:18.852Z,-1.11
2017-12-09T19:30:46.712Z,-1.20
2017-12-09T19:33:14.231Z,-1.16
2017-12-09T19:35:41.761Z,-1.26
2017-12-09T19:38:09.290Z,-1.24
2017-12-09T19:40:37.445Z,-1.22
2017-12-09T19:43:05.015Z,-0.85
2017-12-09T19:45:34.329Z,-1.02
2017-12-09T19:48:01.907Z,-1.07
2017-12-09T19:50:29.442Z,-1.00
2017-12-09T19:52:57.004Z,-0.96
2017-12-09T19:55:24.613Z,-1.06
2017-12-09T19:57:52.190Z,-1.28
2017-12-09T20:00:20.249Z,-1.00
2017-12-09T20:02:47.769Z,-1.14
2017-12-09T20:05:15.331Z,-1.12
2017-12-09T20:07:42.882Z,-1.19
2017-12-09T20:10:10.404Z,-1.01
2017-12-09T20:12:38.060Z,-1.23
2017-12-09T20:15:05.601Z,-1.43
2017-12-09T20:17:34.248Z,-1.50
2017-12-09T20:20:01.770Z,-1.54
2017-12-09T20:22:29.302Z,-1.45
2017-12-09T20:24:56.843Z,-1.84
2017-12-09T20:27:24.396Z,-1.72
2017-12-09T20:29:54.070Z,-2.05
2017-12-09T20:32:21.589Z,-2.26
2017-12-09T20:34:49.257Z,-1.71
2017-12-09T20:37:16.817Z,-1.93
2017-12-09T20:39:44.281Z,-1.96
2017-12-09T20:42:12.878Z,-1.82
2017-12-09T20:44:40.442Z,-2.47
2017-12-09T20:47:07.985Z,-2.57
2017-12-09T20:49:35.723Z,-2.69
2017-12-09T20:52:03.399Z,-2.67
2017-12-09T20:54:30.918Z,-2.32
2017-12-09T20:56:58.458Z,-2.59
2017-12-09T20:59:25.973Z,-2.53
2017-12-09T21:01:53.491Z,-2.44
2017-12-09T21:04:21.012Z,-1.97
2017-12-09T21:06:48.527Z,-2.52
2017-12-09T21:09:16.053Z,-2.35
2017-12-09T21:11:43.673Z,-2.53
2017-12-09T21:14:11.239Z,-2.28
2017-12-09T21:16:38.753Z,-2.34
2017-12-09T21:19:06.323Z,-2.08
2017-12-09T21:21:33.837Z,-2.45
2017-12-09T21:24:01.368Z,-2.13
2017-12-09T21:26:28.913Z,-2.21
2017-12-09T21:28:56.447Z,-1.83
2017-12-09T21:31:23.971Z,-2.47
2017-12-09T21:33:51.519Z,-2.27
2017-12-09T21:36:19.036Z,-2.06
2017-12-09T21:38:46.550Z,-1.76
2017-12-09T21:41:14.060Z,-1.78
2017-12-09T21:43:41.629Z,-1.64
2017-12-09T21:46:09.237Z,-1.63
2017-12-09T21:48:36.746Z,-1.58
2017-12-09T21:51:04.249Z,-2.07
2017-12-09T21:53:31.810Z,-2.45
2017-12-09T21:55:59.330Z,-1.86
2017-12-09T21:58:27.412Z,-1.67
2017-12-09T22:00:56.442Z,-1.75
2017-12-09T22:03:23.956Z,-1.59
2017-12-09T22:05:51.481Z,-1.75
2017-12-09T22:08:19.074Z,-1.82
2017-12-09T22:10:46.551Z,-1.50
2017-12-09T22:13:14.060Z,-1.14
2017-12-09T22:15:41.700Z,-1.36
2017-12-09T22:18:09.228Z,-1.36
2017-12-09T22:20:36.809Z,-1.17
2017-12-09T22:23:04.471Z,-2.03
2017-12-09T22:25:32.078Z,-2.58
2017-12-09T22:27:59.632Z,-2.24
2017-12-09T22:30:27.178Z,-2.61
2017-12-09T22:32:54.689Z,-2.49
2017-12-09T22:35:22.196Z,-1.97
2017-12-09T22:37:49.752Z,-2.57
2017-12-09T22:40:17.318Z,-1.98
2017-12-09T22:42:44.873Z,-2.16
2017-12-09T22:45:12.677Z,-2.92
2017-12-09T22:47:40.222Z,-3.00
2017-12-09T22:50:07.754Z,-2.76
2017-12-09T22:52:35.336Z,-2.91
2017-12-09T22:55:02.861Z,-3.27
2017-12-09T22:57:30.386Z,-3.04
2017-12-09T22:59:58.130Z,-2.59
2017-12-09T23:02:25.661Z,-2.68
2017-12-09T23:04:53.179Z,-2.53
2017-12-09T23:07:20.713Z,-3.12
2017-12-09T23:09:48.227Z,-3.19
2017-12-09T23:12:15.830Z,-2.84
2017-12-09T23:14:43.411Z,-3.29
2017-12-09T23:17:10.977Z,-3.36
2017-12-09T23:19:38.493Z,-3.32
2017-12-09T23:22:06.096Z,-3.59
2017-12-09T23:24:34.734Z,-3.19
2017-12-09T23:27:02.236Z,-2.98
2017-12-09T23:29:29.761Z,-3.47
2017-12-09T23:31:57.262Z,-3.74
2017-12-09T23:34:24.810Z,-3.89
2017-12-09T23:36:52.955Z,-3.44
2017-12-09T23:39:20.464Z,-3.48
2017-12-09T23:41:47.966Z,-3.53
2017-12-09T23:44:15.479Z,-3.11
2017-12-09T23:46:43.038Z,-3.05
2017-12-09T23:49:10.680Z,-3.45
2017-12-09T23:51:39.070Z,-3.74
2017-12-09T23:54:07.342Z,-4.01
2017-12-09T23:56:34.836Z,-3.93
2017-12-09T23:59:02.333Z,-3.86
